createdAt,value
2019-03-16T00:00:05.091Z,99495.31
2019-03-16T00:02:33.658Z,99495.34
2019-03-16T00:05:02.300Z,99502.29
2019-03-16T00:07:33.184Z,99501.92
2019-03-16T00:10:01.166Z,99511.77
2019-03-16T00:12:29.840Z,99522.36
2019-03-16T00:14:58.394Z,99527.28
2019-03-16T00:17:26.995Z,99528.43
2019-03-16T00:19:55.589Z,99543.13
2019-03-16T00:22:24.361Z,99537.94
2019-03-16T00:24:52.873Z,99523.72
2019-03-16T00:27:21.510Z,99541.78
2019-03-16T00:29:50.146Z,99534.74
2019-03-16T00:32:18.691Z,99538.16
2019-03-16T00:34:47.186Z,99543.77
2019-03-16T00:37:15.854Z,99542.45
2019-03-16T00:39:45.134Z,99550.17
2019-03-16T00:42:13.840Z,99556.02
2019-03-16T00:44:42.434Z,99574.80
2019-03-16T00:47:10.971Z,99562.55
2019-03-16T00:49:39.602Z,99559.48
2019-03-16T00:52:08.190Z,99556.63
2019-03-16T00:54:36.769Z,99569.66
2019-03-16T00:57:06.381Z,99563.70
2019-03-16T00:59:34.963Z,99574.11
2019-03-16T01:02:03.524Z,99577.40
2019-03-16T01:04:32.131Z,99579.75
2019-03-16T01:07:00.719Z,99579.77
2019-03-16T01:09:29.295Z,99574.25
2019-03-16T01:11:57.877Z,99587.61
2019-03-16T01:14:26.459Z,99578.22
2019-03-16T01:16:55.037Z,99583.38
2019-03-16T01:19:23.621Z,99592.55
2019-03-16T01:21:52.211Z,99588.30
2019-03-16T01:24:20.796Z,99590.75
2019-03-16T01:26:49.381Z,99595.52
2019-03-16T01:29:17.965Z,99594.62
2019-03-16T01:31:46.551Z,99600.73
2019-03-16T01:34:15.227Z,99604.15
2019-03-16T01:36:43.804Z,99611.28
2019-03-16T01:39:12.779Z,99597.13
2019-03-16T01:41:41.271Z,99614.62
2019-03-16T01:44:09.866Z,99620.34
2019-03-16T01:46:38.444Z,99634.96
2019-03-16T01:49:07.450Z,99629.75
2019-03-16T01:51:36.012Z,99645.52
2019-03-16T01:54:04.806Z,99641.45
2019-03-16T01:56:33.302Z,99625.12
2019-03-16T01:59:01.886Z,99631.16
2019-03-16T02:01:30.465Z,99642.61
2019-03-16T02:03:59.045Z,99640.69
2019-03-16T02:06:27.613Z,99632.80
2019-03-16T02:08:56.212Z,99633.39
2019-03-16T02:11:24.802Z,99635.59
2019-03-16T02:13:53.686Z,99643.42
2019-03-16T02:16:22.260Z,99647.01
2019-03-16T02:18:50.856Z,99658.50
2019-03-16T02:21:19.416Z,99652.52
2019-03-16T02:23:48.123Z,99666.89
2019-03-16T02:26:16.684Z,99661.55
2019-03-16T02:28:45.302Z,99665.86
2019-03-16T02:31:13.767Z,99665.70
2019-03-16T02:33:42.371Z,99679.84
2019-03-16T02:36:10.917Z,99678.43
2019-03-16T02:38:39.528Z,99680.19
2019-03-16T02:41:08.123Z,99690.78
2019-03-16T02:43:36.675Z,99692.93
2019-03-16T02:46:05.272Z,99691.61
2019-03-16T02:48:33.857Z,99702.98
2019-03-16T02:51:02.454Z,99712.56
2019-03-16T02:53:31.002Z,99714.20
2019-03-16T02:55:59.588Z,99715.33
2019-03-16T02:58:28.209Z,99723.41
2019-03-16T03:00:56.761Z,99728.03
2019-03-16T03:03:29.863Z,99731.17
2019-03-16T03:05:55.653Z,99716.10
2019-03-16T03:08:24.293Z,99732.21
2019-03-16T03:10:52.820Z,99737.13
2019-03-16T03:13:21.422Z,99739.60
2019-03-16T03:15:50.060Z,99735.75
2019-03-16T03:18:18.708Z,99745.27
2019-03-16T03:20:47.243Z,99743.05
2019-03-16T03:23:16.245Z,99738.92
2019-03-16T03:25:44.772Z,99748.27
2019-03-16T03:28:13.898Z,99748.00
2019-03-16T03:30:42.537Z,99761.10
2019-03-16T03:33:11.142Z,99768.12
2019-03-16T03:35:39.717Z,99767.06
2019-03-16T03:38:08.307Z,99765.78
2019-03-16T03:40:36.870Z,99778.56
2019-03-16T03:43:05.438Z,99779.89
2019-03-16T03:45:34.255Z,99788.87
2019-03-16T03:48:02.821Z,99785.09
2019-03-16T03:50:31.530Z,99788.95
2019-03-16T03:53:00.055Z,99792.25
2019-03-16T03:55:28.582Z,99795.71
2019-03-16T03:57:57.123Z,99801.19
2019-03-16T04:00:25.647Z,99801.97
2019-03-16T04:02:54.611Z,99806.67
2019-03-16T04:05:23.134Z,99806.36
2019-03-16T04:07:51.746Z,99811.67
2019-03-16T04:10:20.347Z,99817.66
2019-03-16T04:12:49.041Z,99815.75
2019-03-16T04:15:17.573Z,99820.98
2019-03-16T04:17:46.228Z,99835.43
2019-03-16T04:20:15.347Z,99836.28
2019-03-16T04:22:43.940Z,99840.06
2019-03-16T04:25:12.661Z,99831.42
2019-03-16T04:27:41.294Z,99842.30
2019-03-16T04:30:11.694Z,99856.69
2019-03-16T04:32:40.266Z,99855.59
2019-03-16T04:35:09.365Z,99857.50
2019-03-16T04:37:37.982Z,99862.40
2019-03-16T04:40:08.902Z,99864.84
2019-03-16T04:42:37.510Z,99866.44
2019-03-16T04:45:12.867Z,99868.11
2019-03-16T04:47:41.390Z,99869.16
2019-03-16T04:50:12.156Z,99879.23
2019-03-16T04:52:40.688Z,99871.89
2019-03-16T04:55:11.958Z,99879.81
2019-03-16T04:57:40.485Z,99881.10
2019-03-16T05:00:13.754Z,99887.70
2019-03-16T05:02:42.332Z,99885.77
2019-03-16T05:05:10.968Z,99892.32
2019-03-16T05:07:39.571Z,99890.39
2019-03-16T05:10:11.836Z,99893.44
2019-03-16T05:12:40.345Z,99889.36
2019-03-16T05:15:09.975Z,99885.86
2019-03-16T05:17:38.554Z,99891.51
2019-03-16T05:20:11.921Z,99894.20
2019-03-16T05:22:40.538Z,99897.16
2019-03-16T05:25:10.739Z,99899.33
2019-03-16T05:27:39.340Z,99909.49
2019-03-16T05:30:10.936Z,99915.42
2019-03-16T05:32:39.461Z,99923.55
2019-03-16T05:35:08.516Z,99915.98
2019-03-16T05:37:37.386Z,99928.50
2019-03-16T05:40:08.772Z,99933.67
2019-03-16T05:42:37.599Z,99930.08
2019-03-16T05:45:08.022Z,99936.91
2019-03-16T05:47:36.626Z,99942.05
2019-03-16T05:50:10.342Z,99951.55
2019-03-16T05:52:38.908Z,99953.45
2019-03-16T05:55:07.590Z,99955.63
2019-03-16T05:57:36.162Z,99961.61
2019-03-16T06:00:12.774Z,99965.67
2019-03-16T06:02:41.632Z,99965.09
2019-03-16T06:05:11.451Z,99971.36
2019-03-16T06:07:40.179Z,99963.73
2019-03-16T06:10:11.188Z,99988.95
2019-03-16T06:12:39.870Z,99991.64
2019-03-16T06:15:10.115Z,99985.89
2019-03-16T06:17:38.678Z,99991.03
2019-03-16T06:20:10.358Z,99991.84
2019-03-16T06:22:38.953Z,100001.58
2019-03-16T06:25:09.320Z,100001.27
2019-03-16T06:27:37.875Z,100001.19
2019-03-16T06:30:09.700Z,100003.91
2019-03-16T06:32:38.319Z,100008.23
2019-03-16T06:35:07.752Z,100019.75
2019-03-16T06:37:36.446Z,100016.28
2019-03-16T06:40:06.563Z,100018.95
2019-03-16T06:42:35.136Z,100027.92
2019-03-16T06:45:04.739Z,100021.00
2019-03-16T06:47:34.563Z,100029.86
2019-03-16T06:50:04.616Z,100033.55
2019-03-16T06:52:33.135Z,100030.72
2019-03-16T06:55:01.739Z,100034.71
2019-03-16T06:57:30.353Z,100031.92
2019-03-16T06:59:58.902Z,100036.41
2019-03-16T07:02:27.847Z,100045.19
2019-03-16T07:04:56.359Z,100044.92
2019-03-16T07:07:27.062Z,100047.05
2019-03-16T07:09:55.537Z,100049.51
2019-03-16T07:12:24.457Z,100054.69
2019-03-16T07:14:53.066Z,100055.39
2019-03-16T07:17:21.904Z,100055.49
2019-03-16T07:19:50.435Z,100053.59
2019-03-16T07:22:19.013Z,100059.39
2019-03-16T07:24:47.609Z,100060.91
2019-03-16T07:27:25.660Z,100067.03
2019-03-16T07:29:46.505Z,100064.06
2019-03-16T07:32:18.261Z,100065.38
2019-03-16T07:34:46.842Z,100071.60
2019-03-16T07:37:15.427Z,100063.47
2019-03-16T07:39:43.938Z,100087.82
2019-03-16T07:42:12.490Z,100079.83
2019-03-16T07:44:41.007Z,100087.53
2019-03-16T07:47:09.582Z,100081.70
2019-03-16T07:49:39.084Z,100091.39
2019-03-16T07:52:07.755Z,100089.55
2019-03-16T07:54:37.297Z,100094.25
2019-03-16T07:57:05.839Z,100098.88
2019-03-16T07:59:36.955Z,100099.17
2019-03-16T08:02:04.747Z,100100.74
2019-03-16T08:04:34.357Z,100096.93
2019-03-16T08:07:03.244Z,100104.98
2019-03-16T08:09:32.175Z,100113.92
2019-03-16T08:12:00.814Z,100114.45
2019-03-16T08:14:29.330Z,100110.66
2019-03-16T08:16:57.979Z,100099.02
2019-03-16T08:19:26.599Z,100105.95
2019-03-16T08:21:55.114Z,100108.83
2019-03-16T08:24:25.679Z,100116.55
2019-03-16T08:26:54.301Z,100125.55
2019-03-16T08:29:22.791Z,100144.91
2019-03-16T08:31:51.533Z,100135.02
2019-03-16T08:34:20.139Z,100144.08
2019-03-16T08:36:48.713Z,100145.37
2019-03-16T08:39:17.282Z,100140.86
2019-03-16T08:41:45.846Z,100143.76
2019-03-16T08:44:14.441Z,100137.53
2019-03-16T08:46:43.005Z,100142.37
2019-03-16T08:49:11.611Z,100135.14
2019-03-16T08:51:40.395Z,100132.92
2019-03-16T08:54:08.983Z,100138.87
2019-03-16T08:56:37.599Z,100134.45
2019-03-16T08:59:06.462Z,100134.95
2019-03-16T09:01:35.055Z,100133.80
2019-03-16T09:04:03.927Z,100137.81
2019-03-16T09:06:32.525Z,100129.45
2019-03-16T09:09:01.090Z,100133.33
2019-03-16T09:11:30.299Z,100131.14
2019-03-16T09:13:58.882Z,100130.62
2019-03-16T09:16:27.476Z,100130.62
2019-03-16T09:18:56.052Z,100132.25
2019-03-16T09:21:24.638Z,100134.52
2019-03-16T09:23:53.215Z,100135.79
2019-03-16T09:26:21.806Z,100139.53
2019-03-16T09:28:59.678Z,100145.59
2019-03-16T09:31:20.577Z,100140.72
2019-03-16T09:33:49.058Z,100140.73
2019-03-16T09:36:17.636Z,100133.40
2019-03-16T09:38:46.171Z,100144.67
2019-03-16T09:41:14.804Z,100154.15
2019-03-16T09:43:43.411Z,100154.39
2019-03-16T09:46:11.974Z,100166.29
2019-03-16T09:48:40.453Z,100158.60
2019-03-16T09:51:09.043Z,100170.69
2019-03-16T09:53:37.591Z,100158.62
2019-03-16T09:56:06.159Z,100160.91
2019-03-16T09:58:35.407Z,100162.42
2019-03-16T10:01:03.953Z,100160.66
2019-03-16T10:03:32.463Z,100164.09
2019-03-16T10:06:01.053Z,100160.08
2019-03-16T10:08:29.558Z,100156.06
2019-03-16T10:10:58.134Z,100165.15
2019-03-16T10:13:26.659Z,100168.84
2019-03-16T10:15:55.218Z,100160.94
2019-03-16T10:18:23.731Z,100153.54
2019-03-16T10:20:52.255Z,100149.80
2019-03-16T10:23:20.805Z,100148.34
2019-03-16T10:25:49.758Z,100143.61
2019-03-16T10:28:18.428Z,100147.42
2019-03-16T10:30:46.980Z,100148.50
2019-03-16T10:33:15.558Z,100139.10
2019-03-16T10:35:44.117Z,100143.45
2019-03-16T10:38:12.647Z,100145.37
2019-03-16T10:40:41.155Z,100140.75
2019-03-16T10:43:10.177Z,100147.73
2019-03-16T10:45:40.899Z,100153.67
2019-03-16T10:48:14.829Z,100144.64
2019-03-16T10:50:44.434Z,100158.42
2019-03-16T10:53:13.087Z,100152.34
2019-03-16T10:55:42.075Z,100154.22
2019-03-16T10:58:10.594Z,100165.44
2019-03-16T11:00:39.093Z,100160.82
2019-03-16T11:03:07.656Z,100161.25
2019-03-16T11:05:37.144Z,100183.77
2019-03-16T11:08:06.065Z,100178.77
2019-03-16T11:10:34.640Z,100173.25
2019-03-16T11:13:03.265Z,100175.67
2019-03-16T11:15:31.837Z,100171.36
2019-03-16T11:18:00.430Z,100172.23
2019-03-16T11:20:28.904Z,100181.54
2019-03-16T11:22:57.516Z,100177.23
2019-03-16T11:25:26.074Z,100172.09
2019-03-16T11:27:56.253Z,100169.84
2019-03-16T11:30:24.799Z,100164.11
2019-03-16T11:32:54.863Z,100161.56
2019-03-16T11:35:24.231Z,100174.69
2019-03-16T11:37:54.260Z,100172.97
2019-03-16T11:40:22.932Z,100178.11
2019-03-16T11:42:52.118Z,100183.36
2019-03-16T11:45:20.787Z,100179.91
2019-03-16T11:47:49.396Z,100180.28
2019-03-16T11:50:17.992Z,100171.41
2019-03-16T11:52:46.594Z,100173.91
2019-03-16T11:55:17.105Z,100168.91
2019-03-16T11:57:45.742Z,100167.45
2019-03-16T12:00:15.687Z,100175.73
2019-03-16T12:02:44.303Z,100164.27
2019-03-16T12:05:12.922Z,100152.89
2019-03-16T12:07:41.471Z,100153.63
2019-03-16T12:10:12.524Z,100157.62
2019-03-16T12:12:41.066Z,100155.52
2019-03-16T12:15:11.936Z,100157.66
2019-03-16T12:17:40.600Z,100160.19
2019-03-16T12:20:13.743Z,100157.97
2019-03-16T12:22:42.443Z,100156.27
2019-03-16T12:25:11.295Z,100149.55
2019-03-16T12:27:39.833Z,100148.67
2019-03-16T12:30:11.004Z,100149.73
2019-03-16T12:32:40.342Z,100142.67
2019-03-16T12:35:09.244Z,100146.22
2019-03-16T12:37:37.823Z,100147.16
2019-03-16T12:40:09.720Z,100148.70
2019-03-16T12:42:38.297Z,100145.19
2019-03-16T12:45:14.636Z,100141.61
2019-03-16T12:47:43.244Z,100140.62
2019-03-16T12:50:12.268Z,100138.17
2019-03-16T12:52:41.350Z,100132.20
2019-03-16T12:55:11.240Z,100123.25
2019-03-16T12:57:39.949Z,100126.42
2019-03-16T13:00:16.055Z,100121.64
2019-03-16T13:02:46.333Z,100124.68
2019-03-16T13:05:14.903Z,100114.83
2019-03-16T13:07:43.859Z,100114.77
2019-03-16T13:10:13.968Z,100118.31
2019-03-16T13:12:42.698Z,100112.41
2019-03-16T13:15:11.266Z,100120.55
2019-03-16T13:17:39.790Z,100114.31
2019-03-16T13:20:13.113Z,100112.29
2019-03-16T13:22:41.721Z,100102.38
2019-03-16T13:25:11.864Z,100103.72
2019-03-16T13:27:40.726Z,100101.81
2019-03-16T13:30:14.663Z,100095.84
2019-03-16T13:32:43.216Z,100100.94
2019-03-16T13:35:11.945Z,100096.30
2019-03-16T13:37:41.697Z,100091.02
2019-03-16T13:40:18.007Z,100076.27
2019-03-16T13:42:46.895Z,100086.92
2019-03-16T13:45:16.285Z,100070.85
2019-03-16T13:47:44.833Z,100070.34
2019-03-16T13:50:17.920Z,100066.25
2019-03-16T13:52:47.018Z,100059.27
2019-03-16T13:55:16.034Z,100049.69
2019-03-16T13:57:44.570Z,100045.41
2019-03-16T14:00:15.531Z,100037.30
2019-03-16T14:02:44.193Z,100033.16
2019-03-16T14:05:12.699Z,100021.47
2019-03-16T14:07:42.019Z,100014.39
2019-03-16T14:10:25.707Z,100017.16
2019-03-16T14:12:56.966Z,100006.22
2019-03-16T14:15:25.476Z,100006.44
2019-03-16T14:17:54.025Z,100002.84
2019-03-16T14:20:22.809Z,99997.70
2019-03-16T14:22:51.468Z,99996.39
2019-03-16T14:25:20.000Z,99985.48
2019-03-16T14:27:48.552Z,99982.52
2019-03-16T14:30:39.487Z,99979.82
2019-03-16T14:32:51.259Z,99965.94
2019-03-16T14:35:19.763Z,99960.85
2019-03-16T14:37:48.686Z,99964.41
2019-03-16T14:40:17.326Z,99951.88
2019-03-16T14:42:45.921Z,99947.81
2019-03-16T14:45:15.570Z,99943.20
2019-03-16T14:47:45.085Z,99938.89
2019-03-16T14:50:18.716Z,99932.31
2019-03-16T14:52:47.370Z,99937.20
2019-03-16T14:55:16.536Z,99929.08
2019-03-16T14:57:45.141Z,99930.16
2019-03-16T15:00:15.574Z,99920.15
2019-03-16T15:02:46.212Z,99914.44
2019-03-16T15:05:15.265Z,99908.76
2019-03-16T15:07:44.258Z,99900.30
2019-03-16T15:10:16.565Z,99907.39
2019-03-16T15:12:45.289Z,99911.75
2019-03-16T15:15:17.570Z,99908.45
2019-03-16T15:17:46.266Z,99897.03
2019-03-16T15:20:15.019Z,99902.50
2019-03-16T15:22:43.954Z,99890.51
2019-03-16T15:25:13.580Z,99889.42
2019-03-16T15:27:42.577Z,99897.22
2019-03-16T15:30:18.717Z,99897.52
2019-03-16T15:32:47.526Z,99887.94
2019-03-16T15:35:16.534Z,99883.92
2019-03-16T15:37:46.543Z,99885.28
2019-03-16T15:40:16.005Z,99872.19
2019-03-16T15:42:44.943Z,99867.05
2019-03-16T15:45:25.550Z,99860.52
2019-03-16T15:47:54.248Z,99875.16
2019-03-16T15:50:25.084Z,99872.43
2019-03-16T15:52:54.072Z,99872.67
2019-03-16T15:55:22.713Z,99865.91
2019-03-16T15:57:51.860Z,99859.64
2019-03-16T16:00:21.043Z,99854.78
2019-03-16T16:02:50.469Z,99856.17
2019-03-16T16:05:20.099Z,99851.52
2019-03-16T16:07:48.691Z,99858.24
2019-03-16T16:10:21.016Z,99854.70
2019-03-16T16:12:50.340Z,99841.89
2019-03-16T16:15:18.823Z,99850.86
2019-03-16T16:17:47.395Z,99842.11
2019-03-16T16:20:17.427Z,99848.06
2019-03-16T16:22:46.019Z,99839.02
2019-03-16T16:25:14.954Z,99836.27
2019-03-16T16:27:43.563Z,99838.21
2019-03-16T16:30:16.313Z,99831.09
2019-03-16T16:32:44.955Z,99826.52
2019-03-16T16:35:15.153Z,99828.14
2019-03-16T16:37:43.837Z,99816.71
2019-03-16T16:40:19.650Z,99820.20
2019-03-16T16:42:48.334Z,99813.94
2019-03-16T16:45:18.313Z,99805.46
2019-03-16T16:47:46.849Z,99806.32
2019-03-16T16:50:17.960Z,99808.73
2019-03-16T16:52:46.926Z,99805.67
2019-03-16T16:55:15.444Z,99810.86
2019-03-16T16:57:43.988Z,99806.50
2019-03-16T17:00:17.931Z,99809.45
2019-03-16T17:02:46.840Z,99808.58
2019-03-16T17:05:15.411Z,99807.22
2019-03-16T17:07:44.159Z,99802.81
2019-03-16T17:10:14.693Z,99799.86
2019-03-16T17:12:44.143Z,99791.64
2019-03-16T17:15:21.480Z,99794.31
2019-03-16T17:17:50.669Z,99795.03
2019-03-16T17:20:19.514Z,99792.61
2019-03-16T17:22:48.123Z,99791.19
2019-03-16T17:25:16.639Z,99790.94
2019-03-16T17:27:45.401Z,99793.33
2019-03-16T17:30:30.394Z,99782.97
2019-03-16T17:32:58.966Z,99789.77
2019-03-16T17:35:27.662Z,99790.22
2019-03-16T17:37:56.284Z,99785.59
2019-03-16T17:40:24.880Z,99788.63
2019-03-16T17:42:53.502Z,99787.16
2019-03-16T17:45:22.419Z,99787.36
2019-03-16T17:47:51.019Z,99792.20
2019-03-16T17:50:19.604Z,99789.20
2019-03-16T17:52:48.185Z,99792.77
2019-03-16T17:55:17.926Z,99782.94
2019-03-16T17:57:46.973Z,99785.88
2019-03-16T18:00:20.502Z,99790.44
2019-03-16T18:02:52.039Z,99779.10
2019-03-16T18:05:19.398Z,99783.08
2019-03-16T18:07:48.284Z,99780.34
2019-03-16T18:10:17.125Z,99776.80
2019-03-16T18:12:46.178Z,99777.34
2019-03-16T18:15:17.801Z,99771.97
2019-03-16T18:17:46.468Z,99778.45
2019-03-16T18:20:18.138Z,99782.31
2019-03-16T18:22:48.096Z,99787.14
2019-03-16T18:25:17.172Z,99778.38
2019-03-16T18:27:45.760Z,99774.28
2019-03-16T18:30:19.069Z,99761.73
2019-03-16T18:32:47.998Z,99761.73
2019-03-16T18:35:16.762Z,99766.02
2019-03-16T18:37:45.508Z,99765.49
2019-03-16T18:40:15.293Z,99769.77
2019-03-16T18:42:44.047Z,99766.77
2019-03-16T18:45:24.288Z,99762.41
2019-03-16T18:47:53.058Z,99761.31
2019-03-16T18:50:21.639Z,99764.25
2019-03-16T18:52:50.219Z,99767.70
2019-03-16T18:55:18.874Z,99767.08
2019-03-16T18:57:47.792Z,99764.56
2019-03-16T19:00:19.637Z,99763.99
2019-03-16T19:02:48.248Z,99762.65
2019-03-16T19:05:17.247Z,99762.34
2019-03-16T19:07:48.097Z,99761.12
2019-03-16T19:10:17.503Z,99762.75
2019-03-16T19:12:46.559Z,99761.84
2019-03-16T19:15:19.101Z,99755.11
2019-03-16T19:17:58.249Z,99751.77
2019-03-16T19:20:18.458Z,99757.14
2019-03-16T19:22:47.530Z,99767.59
2019-03-16T19:25:19.375Z,99749.76
2019-03-16T19:27:48.008Z,99749.87
2019-03-16T19:30:17.636Z,99754.39
2019-03-16T19:32:46.140Z,99755.23
2019-03-16T19:35:17.220Z,99758.69
2019-03-16T19:37:46.620Z,99755.14
2019-03-16T19:40:17.834Z,99757.33
2019-03-16T19:42:47.198Z,99748.83
2019-03-16T19:45:16.057Z,99754.23
2019-03-16T19:47:44.649Z,99756.35
2019-03-16T19:50:16.463Z,99765.91
2019-03-16T19:52:45.091Z,99762.72
2019-03-16T19:55:14.822Z,99752.34
2019-03-16T19:57:43.521Z,99754.85
2019-03-16T20:00:15.148Z,99759.08
2019-03-16T20:02:50.082Z,99747.11
2019-03-16T20:05:14.369Z,99753.88
2019-03-16T20:07:42.890Z,99751.96
2019-03-16T20:10:19.189Z,99741.95
2019-03-16T20:12:48.407Z,99742.47
2019-03-16T20:15:17.796Z,99740.84
2019-03-16T20:17:46.406Z,99738.59
2019-03-16T20:20:16.144Z,99738.27
2019-03-16T20:22:44.739Z,99741.75
2019-03-16T20:25:13.857Z,99737.91
2019-03-16T20:27:42.507Z,99739.27
2019-03-16T20:30:15.856Z,99744.67
2019-03-16T20:32:44.389Z,99740.84
2019-03-16T20:35:13.379Z,99741.36
2019-03-16T20:37:42.086Z,99743.43
2019-03-16T20:40:15.037Z,99746.53
2019-03-16T20:42:43.663Z,99745.06
2019-03-16T20:45:12.788Z,99746.62
2019-03-16T20:47:41.558Z,99749.39
2019-03-16T20:50:16.414Z,99743.52
2019-03-16T20:52:45.015Z,99748.54
2019-03-16T20:55:14.004Z,99743.48
2019-03-16T20:57:42.755Z,99743.38
2019-03-16T21:00:14.025Z,99758.52
2019-03-16T21:02:42.533Z,99755.13
2019-03-16T21:05:11.526Z,99748.23
2019-03-16T21:07:40.065Z,99741.31
2019-03-16T21:10:10.148Z,99740.80
2019-03-16T21:12:38.842Z,99743.47
2019-03-16T21:15:10.683Z,99738.81
2019-03-16T21:17:39.209Z,99744.47
2019-03-16T21:20:16.541Z,99745.25
2019-03-16T21:22:45.217Z,99747.17
2019-03-16T21:25:14.961Z,99744.37
2019-03-16T21:27:43.547Z,99742.14
2019-03-16T21:30:21.590Z,99738.16
2019-03-16T21:32:50.132Z,99734.61
2019-03-16T21:35:18.683Z,99732.61
2019-03-16T21:37:47.450Z,99731.83
2019-03-16T21:40:16.108Z,99728.03
2019-03-16T21:42:45.030Z,99727.48
2019-03-16T21:45:14.289Z,99722.30
2019-03-16T21:47:42.853Z,99727.03
2019-03-16T21:50:15.919Z,99727.03
2019-03-16T21:52:45.121Z,99730.31
2019-03-16T21:55:14.895Z,99723.81
2019-03-16T21:57:46.297Z,99726.52
2019-03-16T22:00:18.616Z,99717.23
2019-03-16T22:02:47.264Z,99718.42
2019-03-16T22:05:15.788Z,99718.27
2019-03-16T22:07:44.369Z,99728.84
2019-03-16T22:10:13.972Z,99720.08
2019-03-16T22:12:42.525Z,99717.80
2019-03-16T22:15:13.400Z,99720.63
2019-03-16T22:17:42.002Z,99716.86
2019-03-16T22:20:12.817Z,99709.41
2019-03-16T22:22:41.413Z,99714.31
2019-03-16T22:25:10.805Z,99714.36
2019-03-16T22:27:39.414Z,99708.33
2019-03-16T22:30:18.342Z,99707.78
2019-03-16T22:32:47.669Z,99701.02
2019-03-16T22:35:16.222Z,99706.48
2019-03-16T22:37:44.762Z,99703.68
2019-03-16T22:40:14.268Z,99695.03
2019-03-16T22:42:43.371Z,99707.48
2019-03-16T22:45:12.935Z,99705.92
2019-03-16T22:47:41.522Z,99696.03
2019-03-16T22:50:13.065Z,99693.67
2019-03-16T22:52:42.133Z,99692.00
2019-03-16T22:55:10.637Z,99705.60
2019-03-16T22:57:39.199Z,99693.11
2019-03-16T23:00:18.328Z,99700.57
2019-03-16T23:02:46.841Z,99701.76
2019-03-16T23:05:15.351Z,99698.21
2019-03-16T23:07:43.914Z,99690.75
2019-03-16T23:10:13.068Z,99690.67
2019-03-16T23:12:41.708Z,99688.93
2019-03-16T23:15:11.162Z,99687.79
2019-03-16T23:17:39.728Z,99693.25
2019-03-16T23:20:09.404Z,99692.77
2019-03-16T23:22:38.061Z,99691.41
2019-03-16T23:25:10.625Z,99690.23
2019-03-16T23:27:39.472Z,99683.77
2019-03-16T23:30:10.511Z,99684.57
2019-03-16T23:32:39.016Z,99675.56
2019-03-16T23:35:10.898Z,99680.28
2019-03-16T23:37:39.525Z,99679.70
2019-03-16T23:40:10.676Z,99679.22
2019-03-16T23:42:39.258Z,99673.20
2019-03-16T23:45:12.783Z,99672.77
2019-03-16T23:47:41.720Z,99669.36
2019-03-16T23:50:11.897Z,99673.46
2019-03-16T23:52:40.535Z,99669.35
2019-03-16T23:55:10.204Z,99668.36
2019-03-16T23:57:39.887Z,99661.05
